Time;durP1;ratioP1;P1;durP2;ratioP2;P2;SDS_P1;SDS_P2;PMS_P1;PMS_P2;Temp;Humidity;BMP_temperature;BMP_pressure;BME280_temperature;BME280_humidity;BME280_pressure;Samples;Min_cycle;Max_cycle;Signal;HPM_P1;HPM_P2
2022/09/07 04:55:48;;;;;;;13.80;7.12;;;;;;;6.69;78.30;98548.82;1873617;76;22397;-59
2022/09/07 04:58:15;;;;;;;11.90;7.30;;;;;;;6.74;78.41;98538.23;1820472;78;20923;-59
2022/09/07 05:00:43;;;;;;;11.83;7.35;;;;;;;6.93;78.21;98540.52;1813832;78;21412;-59
2022/09/07 05:03:10;;;;;;;10.85;6.70;;;;;;;7.07;77.67;98539.03;1759089;78;21001;-57
2022/09/07 05:05:37;;;;;;;14.75;7.33;;;;;;;7.19;77.22;98535.14;1761905;80;21309;-57
2022/09/07 05:08:04;;;;;;;11.60;6.62;;;;;;;7.30;76.92;98535.48;1736256;80;20989;-58
2022/09/07 05:10:33;;;;;;;9.75;6.25;;;;;;;7.46;76.62;98531.89;1743924;82;20994;-59
2022/09/07 05:13:01;;;;;;;12.68;6.20;;;;;;;7.62;76.43;98535.45;1744038;82;21214;-59
2022/09/07 05:15:30;;;;;;;9.08;5.92;;;;;;;7.78;75.88;98534.98;1783343;79;20954;-61
2022/09/07 05:17:57;;;;;;;10.25;6.17;;;;;;;7.91;75.46;98528.68;1798166;79;21473;-58
2022/09/07 05:20:25;;;;;;;8.95;6.40;;;;;;;8.06;74.96;98534.06;1796461;79;21100;-57
2022/09/07 05:22:58;;;;;;;13.25;6.53;;;;;;;8.23;74.63;98527.19;1797538;79;21120;-59
2022/09/07 05:25:27;;;;;;;10.90;6.97;;;;;;;8.40;73.92;98535.02;1768345;79;21122;-57
2022/09/07 05:27:54;;;;;;;11.93;6.40;;;;;;;8.51;73.11;98531.30;1772311;79;21118;-57
2022/09/07 05:30:21;;;;;;;7.90;5.87;;;;;;;8.61;72.42;98532.14;1755753;80;21420;-59
2022/09/07 05:32:49;;;;;;;11.55;6.35;;;;;;;8.72;71.74;98532.94;1731654;79;21531;-57
2022/09/07 05:35:18;;;;;;;12.50;6.58;;;;;;;8.77;71.42;98530.28;1775802;79;21086;-60
2022/09/07 05:37:50;;;;;;;14.43;6.08;;;;;;;8.85;71.09;98527.09;1775423;79;21118;-57
2022/09/07 05:40:18;;;;;;;16.23;6.62;;;;;;;8.92;70.67;98531.65;1761477;79;21043;-58
2022/09/07 05:42:49;;;;;;;8.80;6.20;;;;;;;9.00;70.43;98523.64;1769115;80;21134;-56
2022/09/07 05:45:17;;;;;;;13.65;6.35;;;;;;;9.09;70.11;98528.72;1769564;79;21207;-59
2022/09/07 05:47:49;;;;;;;11.00;6.25;;;;;;;9.15;69.56;98521.77;1766620;80;21045;-60
2022/09/07 05:50:16;;;;;;;13.20;6.42;;;;;;;9.20;69.35;98524.44;1769926;80;21163;-60
2022/09/07 05:52:44;;;;;;;12.20;6.42;;;;;;;9.27;69.26;98522.30;1765360;79;21053;-58
2022/09/07 05:55:11;;;;;;;8.15;5.75;;;;;;;9.32;69.00;98524.97;1755142;80;21044;-57
2022/09/07 05:57:38;;;;;;;13.22;5.55;;;;;;;9.39;68.91;98524.69;1752631;80;21081;-61
2022/09/07 06:00:07;;;;;;;9.00;5.70;;;;;;;9.47;68.74;98532.95;1756059;81;21125;-61
2022/09/07 06:02:36;;;;;;;10.98;5.83;;;;;;;9.56;68.45;98531.33;1775177;79;21668;-57
2022/09/07 06:05:05;;;;;;;9.78;6.33;;;;;;;9.63;68.26;98529.17;1773174;79;21594;-59
2022/09/07 06:07:33;;;;;;;6.67;4.87;;;;;;;9.76;67.95;98533.70;1812565;77;21052;-57
2022/09/07 06:10:00;;;;;;;11.28;5.70;;;;;;;9.88;67.78;98530.19;1811002;77;20970;-58
2022/09/07 06:12:28;;;;;;;9.50;6.00;;;;;;;10.01;67.55;98526.95;1808573;78;20886;-60
2022/09/07 06:14:55;;;;;;;7.80;5.08;;;;;;;10.14;67.05;98523.17;1808345;77;21919;-59
2022/09/07 06:17:23;;;;;;;9.28;5.25;;;;;;;10.27;66.76;98528.45;1809730;77;20943;-59
2022/09/07 06:19:49;;;;;;;8.03;5.42;;;;;;;10.39;66.38;98528.16;1811954;77;21499;-58
2022/09/07 06:22:17;;;;;;;7.87;5.37;;;;;;;10.50;66.22;98529.70;1809492;77;21038;-59
2022/09/07 06:24:44;;;;;;;12.47;5.80;;;;;;;10.61;65.92;98526.68;1823630;77;20977;-59
2022/09/07 06:27:11;;;;;;;9.20;5.05;;;;;;;10.74;65.62;98528.73;1809825;77;21260;-60
2022/09/07 06:29:41;;;;;;;9.28;5.70;;;;;;;10.86;64.97;98526.51;1821393;77;21564;-63
2022/09/07 06:32:09;;;;;;;8.63;5.58;;;;;;;10.96;64.84;98534.48;1813466;79;20951;-60
2022/09/07 06:34:36;;;;;;;10.85;6.22;;;;;;;11.09;64.50;98525.55;1811340;77;21080;-60
2022/09/07 06:37:04;;;;;;;9.18;6.22;;;;;;;11.22;64.36;98534.27;1809956;78;21095;-58
2022/09/07 06:39:33;;;;;;;9.45;6.30;;;;;;;11.33;64.19;98529.11;1813032;79;21123;-58
2022/09/07 06:42:00;;;;;;;11.80;6.17;;;;;;;11.45;63.50;98531.66;1813580;78;21493;-59
2022/09/07 06:44:29;;;;;;;9.28;6.08;;;;;;;11.52;62.80;98534.00;1774404;80;20927;-59
2022/09/07 06:46:56;;;;;;;12.85;5.87;;;;;;;11.54;62.48;98531.86;1788604;79;21062;-59
2022/09/07 06:49:23;;;;;;;11.80;5.97;;;;;;;11.60;62.16;98538.77;1766074;79;21046;-57
2022/09/07 06:51:51;;;;;;;8.90;5.53;;;;;;;11.61;61.74;98536.35;1748417;80;21238;-57
2022/09/07 06:54:23;;;;;;;9.68;5.80;;;;;;;11.64;61.60;98537.91;1778044;79;21619;-57
2022/09/07 06:56:50;;;;;;;10.13;5.30;;;;;;;11.68;61.66;98540.88;1793180;79;21027;-59
2022/09/07 06:59:17;;;;;;;7.45;5.50;;;;;;;11.74;61.49;98533.02;1802374;78;21046;-58
2022/09/07 07:01:48;;;;;;;7.08;5.67;;;;;;;11.85;61.78;98535.03;1822090;78;21121;-58
2022/09/07 07:04:15;;;;;;;13.85;6.05;;;;;;;11.93;61.37;98532.55;1812577;77;21556;-57
2022/09/07 07:06:47;;;;;;;8.45;5.70;;;;;;;12.01;60.99;98533.23;1822762;77;21036;-57
2022/09/07 07:09:16;;;;;;;10.30;6.15;;;;;;;12.08;60.92;98531.01;1791541;79;20962;-57
2022/09/07 07:11:46;;;;;;;11.68;5.78;;;;;;;12.18;60.81;98532.23;1800128;77;21022;-58
2022/09/07 07:14:17;;;;;;;10.85;5.67;;;;;;;12.27;60.68;98533.77;1822987;78;21098;-57
2022/09/07 07:16:44;;;;;;;9.05;5.90;;;;;;;12.39;60.34;98537.37;1824031;77;22237;-58
2022/09/07 07:19:10;;;;;;;8.83;5.70;;;;;;;12.43;60.21;98528.45;1818762;77;21042;-58
2022/09/07 07:21:37;;;;;;;13.50;5.87;;;;;;;12.49;60.50;98526.47;1772398;80;20959;-58
2022/09/07 07:24:04;;;;;;;10.15;5.90;;;;;;;12.57;60.63;98529.87;1779708;80;21027;-58
2022/09/07 07:26:32;;;;;;;11.88;6.40;;;;;;;12.65;60.58;98537.27;1766087;80;21117;-58
2022/09/07 07:28:59;;;;;;;10.65;6.17;;;;;;;12.73;60.25;98535.28;1814573;77;21241;-58
2022/09/07 07:31:26;;;;;;;9.88;6.05;;;;;;;12.82;60.67;98536.22;1815765;78;21001;-59
2022/09/07 07:33:53;;;;;;;11.53;6.25;;;;;;;12.98;60.23;98534.89;1816088;77;21039;-58
2022/09/07 07:36:24;;;;;;;8.38;6.28;;;;;;;13.12;60.35;98530.41;1821365;77;20988;-57
2022/09/07 07:38:52;;;;;;;11.93;6.37;;;;;;;13.28;59.67;98534.47;1818074;77;21030;-57
2022/09/07 07:41:22;;;;;;;11.55;5.95;;;;;;;13.42;59.51;98525.08;1771458;80;21272;-56
2022/09/07 07:43:59;;;;;;;11.78;6.65;;;;;;;13.55;59.48;98533.18;1825571;77;20916;-58
2022/09/07 07:46:24;;;;;;;12.20;7.28;;;;;;;13.68;59.48;98524.31;1812540;77;20908;-58
2022/09/07 07:48:52;;;;;;;8.70;6.35;;;;;;;13.84;58.91;98529.44;1827419;77;20993;-58
2022/09/07 07:51:19;;;;;;;11.33;6.50;;;;;;;13.95;58.36;98526.25;1816369;77;21101;-58
2022/09/07 07:53:46;;;;;;;15.28;7.40;;;;;;;14.07;58.11;98515.78;1809047;78;21270;-58
2022/09/07 07:56:13;;;;;;;8.15;6.67;;;;;;;14.19;57.77;98509.88;1787394;79;21614;-57
2022/09/07 07:58:46;;;;;;;10.50;6.87;;;;;;;14.29;57.56;98515.07;1814857;76;21512;-58
2022/09/07 08:01:15;;;;;;;15.03;5.97;;;;;;;14.41;57.13;98512.69;1812234;77;20979;-57
2022/09/07 08:03:44;;;;;;;8.75;6.08;;;;;;;14.51;57.43;98512.45;1809452;77;21030;-54
2022/09/07 08:06:16;;;;;;;9.38;5.92;;;;;;;14.66;57.09;98517.52;1829411;77;21120;-59
2022/09/07 08:08:44;;;;;;;13.25;6.87;;;;;;;14.79;56.51;98516.67;1838956;77;20896;-55
2022/09/07 08:11:15;;;;;;;8.60;6.25;;;;;;;14.93;56.47;98513.38;1844860;77;21539;-58
2022/09/07 08:13:44;;;;;;;7.75;6.25;;;;;;;15.08;56.06;98519.77;1828045;77;20908;-57
2022/09/07 08:16:11;;;;;;;11.78;7.45;;;;;;;15.24;55.42;98509.97;1820234;77;20978;-57
2022/09/07 08:18:39;;;;;;;11.75;7.22;;;;;;;15.37;54.50;98503.69;1818316;77;21255;-59
2022/09/07 08:21:10;;;;;;;10.88;6.03;;;;;;;15.41;54.61;98497.91;1832116;77;21057;-58
2022/09/07 08:23:38;;;;;;;8.58;5.42;;;;;;;15.50;54.46;98502.83;1831732;77;21009;-65
2022/09/07 08:26:05;;;;;;;9.15;5.33;;;;;;;15.64;54.09;98498.94;1821038;77;21005;-58
2022/09/07 08:28:36;;;;;;;12.82;5.33;;;;;;;15.78;52.98;98498.06;1793943;79;21311;-57
2022/09/07 08:31:08;;;;;;;8.20;5.22;;;;;;;15.86;53.10;98494.03;1800469;77;21066;-58
2022/09/07 08:33:36;;;;;;;9.45;4.78;;;;;;;15.96;53.00;98491.06;1783180;79;20865;-59
2022/09/07 08:36:11;;;;;;;10.98;5.10;;;;;;;16.09;52.30;98492.84;1782733;79;21098;-59
2022/09/07 08:38:38;;;;;;;8.38;5.00;;;;;;;16.20;52.32;98490.08;1785332;77;20959;-59
2022/09/07 08:41:59;;;;;;;9.75;5.05;;;;;;;16.33;51.63;98486.47;1797399;79;20959;-60
2022/09/07 08:44:50;;;;;;;11.73;5.37;;;;;;;16.47;51.11;98482.81;1781960;79;21993;-59
2022/09/07 08:47:28;;;;;;;7.62;4.80;;;;;;;16.66;50.71;98484.70;1744721;81;21009;-59
2022/09/07 08:50:20;;;;;;;7.33;4.72;;;;;;;16.80;50.19;98488.04;1755105;79;21074;-61
2022/09/07 08:53:10;;;;;;;8.08;4.75;;;;;;;16.92;49.95;98478.73;1757271;80;20927;-60
2022/09/07 08:55:56;;;;;;;6.33;4.20;;;;;;;17.07;49.08;98483.67;1776671;80;20900;-60
2022/09/07 08:58:28;;;;;;;7.00;4.65;;;;;;;17.20;49.05;98473.76;1775179;80;22038;-58
2022/09/07 09:00:54;;;;;;;7.12;4.90;;;;;;;17.27;48.26;98466.74;1761941;80;21454;-59
2022/09/07 09:03:27;;;;;;;6.92;4.75;;;;;;;17.35;48.15;98471.36;1745221;82;20967;-60
2022/09/07 09:06:30;;;;;;;14.47;4.37;;;;;;;17.49;48.23;98471.15;1770901;79;20889;-59
2022/09/07 09:09:11;;;;;;;10.93;4.55;;;;;;;17.62;47.76;98468.27;1802640;79;21035;-60
2022/09/07 09:12:00;;;;;;;8.80;5.22;;;;;;;17.78;46.77;98458.47;1757371;79;21170;-62
2022/09/07 09:15:05;;;;;;;8.38;4.92;;;;;;;17.94;46.52;98460.64;1775591;80;20840;-60
2022/09/07 09:17:47;;;;;;;5.00;3.95;;;;;;;18.02;46.02;98451.10;1771727;80;20900;-60
2022/09/07 09:20:22;;;;;;;8.93;4.65;;;;;;;18.09;46.41;98446.55;1819438;78;20947;-59
2022/09/07 09:23:12;;;;;;;8.48;4.75;;;;;;;18.18;46.10;98436.44;1812991;77;20905;-60
2022/09/07 09:25:43;;;;;;;5.83;3.65;;;;;;;18.30;45.35;98437.87;1808199;78;21760;-59
2022/09/07 09:28:13;;;;;;;5.83;3.75;;;;;;;18.37;44.86;98435.44;1838879;77;20958;-60
2022/09/07 09:30:40;;;;;;;6.70;4.00;;;;;;;18.41;43.32;98433.09;1842244;77;21009;-60
2022/09/07 09:33:20;;;;;;;7.03;3.80;;;;;;;18.38;43.97;98438.36;1797282;77;21018;-60
2022/09/07 09:35:49;;;;;;;6.65;3.67;;;;;;;18.40;44.29;98432.05;1819136;77;20953;-60
2022/09/07 09:38:42;;;;;;;7.47;3.87;;;;;;;18.48;44.46;98429.08;1819137;77;21070;-59
2022/09/07 09:41:22;;;;;;;7.62;3.20;;;;;;;18.60;44.17;98427.23;1837870;77;20942;-59
2022/09/07 09:43:55;;;;;;;3.72;3.02;;;;;;;18.74;43.92;98426.95;1832997;77;21552;-60
2022/09/07 09:46:32;;;;;;;5.80;3.27;;;;;;;18.85;42.55;98432.19;1798144;77;20994;-60
2022/09/07 09:49:21;;;;;;;4.50;2.92;;;;;;;18.85;42.48;98428.12;1762744;80;21065;-59
2022/09/07 09:51:55;;;;;;;8.18;3.22;;;;;;;18.89;41.97;98421.69;1776275;79;21238;-59
2022/09/07 09:54:32;;;;;;;6.87;3.25;;;;;;;19.00;43.15;98418.80;1776673;79;21450;-59
2022/09/07 09:57:01;;;;;;;6.22;3.00;;;;;;;19.22;42.97;98415.47;1768800;79;21646;-59
2022/09/07 09:59:30;;;;;;;6.40;2.90;;;;;;;19.38;42.46;98419.95;1780776;79;21082;-60
2022/09/07 10:01:57;;;;;;;11.53;3.37;;;;;;;19.48;41.69;98413.26;1776183;79;21049;-61
2022/09/07 10:04:32;;;;;;;4.85;2.60;;;;;;;19.54;41.48;98414.64;1768519;79;21597;-58
2022/09/07 10:07:08;;;;;;;7.37;3.20;;;;;;;19.59;40.98;98408.99;1764205;80;21126;-58
2022/09/07 10:09:38;;;;;;;8.00;2.67;;;;;;;19.61;41.17;98404.81;1790475;79;21505;-64
2022/09/07 10:12:07;;;;;;;4.70;2.83;;;;;;;19.64;40.30;98410.90;1769829;80;21134;-65
2022/09/07 10:14:45;;;;;;;6.30;3.20;;;;;;;19.59;40.00;98406.28;1734687;81;21130;-66
2022/09/07 10:17:29;;;;;;;5.08;2.77;;;;;;;19.40;40.55;98408.18;1753637;81;21129;-60
2022/09/07 10:20:02;;;;;;;6.50;2.80;;;;;;;19.15;40.61;98410.56;1730441;80;21037;-60
2022/09/07 10:22:36;;;;;;;12.70;3.08;;;;;;;18.89;40.99;98410.83;1771654;80;21004;-62
2022/09/07 10:25:07;;;;;;;4.67;2.37;;;;;;;18.74;41.44;98406.05;1772160;81;21043;-63
2022/09/07 10:27:36;;;;;;;4.53;2.37;;;;;;;18.71;41.67;98399.12;1740861;79;21099;-63
2022/09/07 10:30:15;;;;;;;5.30;2.83;;;;;;;18.80;42.19;98399.83;1780119;79;21255;-61
2022/09/07 10:33:05;;;;;;;3.35;2.12;;;;;;;18.98;42.11;98397.20;1773963;79;21013;-59
2022/09/07 10:35:46;;;;;;;4.22;2.30;;;;;;;19.16;42.31;98386.94;1775765;79;20998;-63
2022/09/07 10:38:19;;;;;;;3.55;2.52;;;;;;;19.38;41.26;98378.41;1785488;79;20981;-59
2022/09/07 10:41:06;;;;;;;2.90;2.30;;;;;;;19.56;42.04;98377.06;1772310;80;21046;-61
2022/09/07 10:43:47;;;;;;;5.53;2.67;;;;;;;19.79;42.01;98375.47;1787899;79;21155;-59
2022/09/07 10:46:23;;;;;;;4.50;2.67;;;;;;;20.04;41.24;98384.41;1774956;79;21455;-60
2022/09/07 10:55:11;;;;;;;7.28;2.70;;;;;;;20.07;40.62;98372.82;1773358;80;21411;-67
2022/09/07 10:57:56;;;;;;;7.80;2.80;;;;;;;20.08;40.44;98374.42;1757876;79;22400;-60
2022/09/07 11:00:23;;;;;;;4.50;3.30;;;;;;;20.07;39.51;98368.74;1755059;79;21544;-63
2022/09/07 11:03:13;;;;;;;4.70;2.92;;;;;;;19.88;40.51;98368.56;1701274;81;21487;-60
2022/09/07 11:06:19;;;;;;;7.25;2.95;;;;;;;19.72;40.33;98365.17;1745645;79;21087;-59
2022/09/07 11:09:03;;;;;;;4.10;2.80;;;;;;;19.66;40.30;98362.47;1735101;81;20893;-60
2022/09/07 11:11:40;;;;;;;6.65;2.60;;;;;;;19.66;40.74;98354.87;1733362;82;21266;-62
2022/09/07 11:14:15;;;;;;;4.80;2.70;;;;;;;19.73;42.10;98349.66;1743063;81;21043;-65
2022/09/07 11:17:01;;;;;;;9.23;2.70;;;;;;;19.87;41.54;98350.10;1759557;80;21087;-61
2022/09/07 11:19:55;;;;;;;5.67;2.80;;;;;;;19.97;41.04;98345.56;1731609;80;21117;-61
2022/09/07 11:22:34;;;;;;;6.37;2.70;;;;;;;20.13;41.02;98343.72;1764923;80;20925;-61
2022/09/07 11:25:10;;;;;;;5.53;2.52;;;;;;;20.35;40.71;98352.73;1769011;80;21739;-59
2022/09/07 11:27:45;;;;;;;4.58;2.52;;;;;;;20.58;40.42;98352.20;1762893;80;21565;-63
2022/09/07 11:30:20;;;;;;;3.83;2.90;;;;;;;20.75;39.71;98346.47;1768843;81;21542;-62
2022/09/07 11:33:14;;;;;;;5.62;2.70;;;;;;;20.75;39.02;98338.30;1772174;80;21541;-59
2022/09/07 11:36:06;;;;;;;6.45;2.80;;;;;;;20.83;39.80;98332.69;1796756;79;20963;-59
2022/09/07 11:38:56;;;;;;;4.92;3.00;;;;;;;20.99;38.15;98332.70;1780545;79;21834;-64
2022/09/07 11:41:33;;;;;;;5.28;3.60;;;;;;;20.94;38.26;98328.30;1707120;83;21011;-61
2022/09/07 11:44:25;;;;;;;5.85;3.00;;;;;;;21.09;38.51;98327.57;1767259;79;21038;-60
2022/09/07 11:47:01;;;;;;;4.37;2.50;;;;;;;21.37;39.05;98323.95;1799982;77;21483;-58
2022/09/07 11:49:29;;;;;;;6.17;2.47;;;;;;;21.59;37.53;98324.13;1819241;77;20953;-61
2022/09/07 11:52:07;;;;;;;5.83;2.60;;;;;;;21.52;37.30;98325.33;1814329;79;21289;-59
2022/09/07 11:54:47;;;;;;;4.08;2.45;;;;;;;21.53;36.98;98324.16;1811722;77;21117;-61
2022/09/07 11:57:43;;;;;;;4.22;2.30;;;;;;;21.73;37.65;98315.48;1823151;78;20935;-60
2022/09/07 12:00:22;;;;;;;5.22;2.50;;;;;;;22.02;36.54;98314.21;1823817;77;21114;-58
2022/09/07 12:03:26;;;;;;;4.70;2.30;;;;;;;21.97;35.68;98299.48;1826550;77;21046;-60
2022/09/07 12:06:30;;;;;;;4.33;2.20;;;;;;;21.43;35.88;98306.98;1832048;77;21894;-60
2022/09/07 12:09:42;;;;;;;2.62;2.05;;;;;;;20.92;36.15;98306.66;1790277;78;20959;-61
2022/09/07 12:12:31;;;;;;;4.00;2.50;;;;;;;20.52;37.33;98299.95;1823093;77;21089;-60
2022/09/07 12:15:23;;;;;;;5.83;2.60;;;;;;;20.21;37.86;98295.17;1823038;78;21004;-61
2022/09/07 12:18:17;;;;;;;5.08;2.40;;;;;;;20.10;38.76;98296.01;1787744;80;21540;-58
2022/09/07 12:20:45;;;;;;;3.70;2.02;;;;;;;20.42;39.49;98286.84;1773242;80;21212;-59
2022/09/07 12:23:19;;;;;;;3.58;2.40;;;;;;;20.98;38.86;98283.48;1787338;80;20895;-58
2022/09/07 12:25:48;;;;;;;4.12;2.00;;;;;;;21.50;37.79;98277.20;1787691;80;21465;-59
2022/09/07 12:28:16;;;;;;;7.58;2.62;;;;;;;21.93;37.31;98279.55;1754667;80;20931;-59
2022/09/07 12:31:03;;;;;;;5.85;2.42;;;;;;;22.30;35.96;98272.52;1771313;81;20923;-59
2022/09/07 12:33:36;;;;;;;4.70;2.08;;;;;;;22.59;35.97;98270.53;1766056;81;21160;-60
2022/09/07 12:36:29;;;;;;;4.03;2.30;;;;;;;22.88;35.34;98277.33;1769514;81;21011;-59
2022/09/07 12:39:27;;;;;;;3.90;2.25;;;;;;;23.07;34.58;98264.41;1776729;80;20906;-60
2022/09/07 12:42:08;;;;;;;4.33;2.12;;;;;;;23.17;33.57;98262.21;1788466;80;21539;-59
2022/09/07 12:44:37;;;;;;;4.47;2.45;;;;;;;23.17;33.87;98256.74;1718573;83;21658;-60
2022/09/07 12:47:16;;;;;;;4.00;2.22;;;;;;;23.13;33.71;98258.83;1768227;80;21108;-63
2022/09/07 12:50:05;;;;;;;3.42;2.47;;;;;;;23.17;32.85;98256.74;1766238;80;20915;-60
2022/09/07 12:53:16;;;;;;;4.58;2.40;;;;;;;23.17;34.08;98254.02;1781168;80;21642;-61
2022/09/07 12:55:57;;;;;;;3.27;1.82;;;;;;;23.45;34.67;98259.38;1751305;80;20935;-60
2022/09/07 12:58:51;;;;;;;3.92;2.27;;;;;;;23.64;32.40;98259.84;1781387;80;20947;-59
2022/09/07 13:01:45;;;;;;;3.98;1.92;;;;;;;23.61;32.46;98261.37;1772845;80;21380;-59
2022/09/07 13:04:29;;;;;;;6.45;1.87;;;;;;;23.65;31.76;98262.20;1771872;80;20967;-60
2022/09/07 13:07:08;;;;;;;2.65;1.77;;;;;;;23.83;32.55;98251.52;1726973;83;20975;-61
2022/09/07 13:09:40;;;;;;;4.40;2.20;;;;;;;24.11;32.06;98251.91;1814125;77;20919;-61
2022/09/07 13:12:46;;;;;;;2.92;2.10;;;;;;;24.34;32.75;98246.30;1830874;77;20998;-58
2022/09/07 13:15:44;;;;;;;4.95;2.33;;;;;;;24.59;32.07;98243.84;1791411;78;21189;-59
2022/09/07 13:18:29;;;;;;;3.90;1.95;;;;;;;24.84;31.61;98238.84;1705741;83;21131;-59
2022/09/07 13:21:15;;;;;;;4.17;2.40;;;;;;;25.03;30.53;98241.94;1707550;83;21138;-60
2022/09/07 13:23:50;;;;;;;2.95;2.12;;;;;;;25.03;29.91;98245.47;1753576;81;20945;-59
2022/09/07 13:26:33;;;;;;;6.15;2.40;;;;;;;24.90;30.82;98240.05;1767892;80;21089;-60
2022/09/07 13:29:02;;;;;;;9.65;2.80;;;;;;;24.94;30.60;98234.02;1701195;83;21819;-59
2022/09/07 13:31:52;;;;;;;3.67;1.90;;;;;;;25.08;30.98;98237.48;1759819;80;21113;-61
2022/09/07 13:34:40;;;;;;;3.08;2.10;;;;;;;25.22;29.87;98230.73;1782129;79;20979;-60
2022/09/07 13:37:21;;;;;;;6.78;2.10;;;;;;;25.18;29.36;98239.49;1787934;79;20918;-59
2022/09/07 13:39:51;;;;;;;3.05;1.90;;;;;;;24.98;29.81;98234.06;1722317;83;21146;-58
2022/09/07 13:42:31;;;;;;;5.17;2.12;;;;;;;24.87;31.62;98235.32;1732787;81;22073;-59
2022/09/07 13:45:00;;;;;;;3.98;1.90;;;;;;;24.87;31.62;98235.32;1777052;80;20910;-59
2022/09/07 13:48:14;;;;;;;4.70;2.40;;;;;;;25.09;30.20;98243.14;1795993;79;20986;-59
2022/09/07 13:50:52;;;;;;;2.85;1.90;;;;;;;25.24;30.23;98231.14;1762946;80;21052;-59
2022/09/07 13:53:36;;;;;;;3.58;2.27;;;;;;;25.24;30.23;98231.14;1783167;79;21070;-60
2022/09/07 13:56:16;;;;;;;5.20;2.15;;;;;;;25.31;30.43;98224.34;1763643;79;21384;-59
2022/09/07 13:58:48;;;;;;;5.58;2.37;;;;;;;25.29;29.13;98228.05;1721060;82;20985;-60
2022/09/07 14:01:20;;;;;;;7.60;2.05;;;;;;;25.25;30.24;98225.84;1779119;79;21093;-60
2022/09/07 14:03:56;;;;;;;4.33;1.90;;;;;;;25.33;30.14;98224.73;1783920;79;21003;-58
2022/09/07 14:06:30;;;;;;;4.80;2.10;;;;;;;25.44;30.25;98224.25;1788255;78;21049;-59
2022/09/07 14:09:00;;;;;;;;;;;;;;;25.56;30.24;98223.94;1785558;80;21061;-60
2022/09/07 14:11:40;;;;;;;3.12;1.90;;;;;;;25.79;29.53;98217.59;1764951;81;20133;-60
2022/09/07 14:14:23;;;;;;;4.28;1.90;;;;;;;25.95;28.77;98213.75;1749215;80;21006;-61
2022/09/07 14:16:58;;;;;;;4.60;2.17;;;;;;;25.93;28.64;98217.47;1754179;81;21457;-61
2022/09/07 14:19:44;;;;;;;2.12;1.85;;;;;;;25.96;28.58;98216.68;1754351;81;20832;-60
2022/09/07 14:22:22;;;;;;;6.60;2.33;;;;;;;26.07;27.98;98218.33;1754004;81;21247;-61
2022/09/07 14:24:57;;;;;;;8.43;3.20;;;;;;;26.13;27.96;98219.54;1754313;81;20927;-59
2022/09/07 14:27:37;;;;;;;11.90;5.45;;;;;;;25.90;28.43;98220.98;1754095;81;20876;-59
2022/09/07 14:30:31;;;;;;;11.12;5.03;;;;;;;25.64;29.24;98222.81;1754034;81;20980;-60
2022/09/07 14:33:02;;;;;;;6.60;2.50;;;;;;;25.57;30.53;98220.03;1754358;81;20974;-59
2022/09/07 14:35:36;;;;;;;5.72;2.87;;;;;;;25.62;29.26;98225.16;1753755;81;21122;-60
2022/09/07 14:38:31;;;;;;;3.25;2.10;;;;;;;25.62;29.53;98222.42;1754135;81;20907;-60
2022/09/07 14:41:04;;;;;;;3.77;2.50;;;;;;;25.66;29.96;98225.17;1754312;81;21466;-60
2022/09/07 14:43:38;;;;;;;5.53;2.33;;;;;;;25.90;29.76;98227.26;1754319;81;20978;-61
2022/09/07 14:46:25;;;;;;;4.17;2.08;;;;;;;26.09;29.48;98226.16;1753888;81;20903;-61
2022/09/07 14:48:55;;;;;;;3.58;2.08;;;;;;;26.05;29.02;98222.02;1754207;81;21242;-59
2022/09/07 14:51:32;;;;;;;6.05;2.55;;;;;;;25.83;28.31;98213.51;1754163;81;20868;-60
2022/09/07 14:54:04;;;;;;;5.90;2.60;;;;;;;25.58;28.78;98218.05;1753944;81;20883;-60
2022/09/07 14:56:40;;;;;;;3.33;2.00;;;;;;;25.59;29.25;98212.20;1754001;81;20948;-60
2022/09/07 14:59:42;;;;;;;3.35;2.10;;;;;;;25.73;29.60;98206.80;1754106;81;20935;-60
2022/09/07 15:02:23;;;;;;;4.67;2.25;;;;;;;25.91;28.98;98204.12;1754047;81;21165;-60
2022/09/07 15:05:15;;;;;;;4.30;2.00;;;;;;;26.13;28.80;98201.70;1753639;81;21446;-60
2022/09/07 15:07:58;;;;;;;6.53;2.60;;;;;;;26.21;28.63;98203.89;1754022;81;20919;-60
2022/09/07 15:10:29;;;;;;;6.17;2.40;;;;;;;26.13;28.50;98207.77;1753792;81;20888;-60
2022/09/07 15:13:00;;;;;;;3.80;2.25;;;;;;;26.08;28.28;98203.98;1754029;81;20887;-59
2022/09/07 15:15:32;;;;;;;11.00;2.58;;;;;;;26.16;29.11;98205.62;1775511;79;21116;-60
2022/09/07 15:18:03;;;;;;;6.90;2.50;;;;;;;26.25;30.96;98201.92;1779430;79;20971;-61
2022/09/07 15:20:42;;;;;;;19.62;3.08;;;;;;;26.26;30.96;98199.39;1722890;81;21446;-60
2022/09/07 15:23:12;;;;;;;4.47;2.17;;;;;;;26.23;31.49;98204.28;1735599;82;20956;-60
2022/09/07 15:25:41;;;;;;;5.10;2.70;;;;;;;26.14;30.80;98205.23;1735795;82;20908;-60
2022/09/07 15:28:27;;;;;;;5.47;1.92;;;;;;;25.75;30.34;98203.08;1735424;82;21241;-60
2022/09/07 15:30:54;;;;;;;18.32;11.48;;;;;;;25.52;31.64;98203.94;1735483;82;20870;-59
2022/09/07 15:33:21;;;;;;;42.38;24.60;;;;;;;25.35;32.44;98206.53;1734658;82;21007;-60
2022/09/07 15:35:49;;;;;;;45.73;26.65;;;;;;;25.23;32.69;98206.25;1734414;82;20987;-60
2022/09/07 15:38:19;;;;;;;43.87;23.22;;;;;;;25.17;32.76;98202.89;1734080;82;21130;-60
2022/09/07 15:40:52;;;;;;;35.78;23.83;;;;;;;25.11;33.11;98209.30;1734327;82;22004;-60
2022/09/07 15:43:18;;;;;;;29.35;14.83;;;;;;;24.82;33.28;98212.98;1735117;82;20931;-60
2022/09/07 15:45:47;;;;;;;25.90;10.28;;;;;;;24.39;33.13;98219.39;1735580;82;20964;-60
2022/09/07 15:48:16;;;;;;;16.60;4.20;;;;;;;23.79;33.71;98217.84;1735319;82;20901;-61
2022/09/07 15:50:42;;;;;;;8.18;3.20;;;;;;;22.93;34.69;98209.55;1735520;82;20885;-61
2022/09/07 15:53:10;;;;;;;8.70;3.20;;;;;;;21.35;37.14;98211.83;1735680;82;21070;-61
2022/09/07 15:55:36;;;;;;;7.17;3.20;;;;;;;21.35;37.14;98211.83;1735680;82;20999;-61
2022/09/07 15:58:04;;;;;;;10.78;3.00;;;;;;;20.82;38.91;98211.91;1735474;82;20892;-61
2022/09/07 16:00:31;;;;;;;6.90;4.20;;;;;;;20.36;39.61;98214.23;1735537;82;20869;-61
2022/09/07 16:02:58;;;;;;;9.83;3.40;;;;;;;19.95;40.49;98218.68;1735601;82;21036;-60
2022/09/07 16:05:25;;;;;;;6.55;3.22;;;;;;;19.57;41.39;98221.08;1735842;82;21117;-60
2022/09/07 16:07:53;;;;;;;7.62;3.40;;;;;;;19.15;42.44;98211.02;1735466;82;20881;-60
2022/09/07 16:10:20;;;;;;;5.47;3.80;;;;;;;18.78;43.30;98211.58;1735427;82;20968;-59
2022/09/07 16:12:47;;;;;;;11.12;4.25;;;;;;;18.53;44.23;98214.05;1735424;82;21060;-61
2022/09/07 16:15:14;;;;;;;5.28;3.35;;;;;;;18.32;44.90;98212.70;1740833;81;20977;-60
2022/09/07 16:17:42;;;;;;;5.83;3.58;;;;;;;18.11;45.17;98211.19;1743314;82;21828;-61
2022/09/07 16:20:09;;;;;;;16.45;3.37;;;;;;;17.92;46.13;98209.52;1743384;81;20964;-61
2022/09/07 16:22:36;;;;;;;9.33;3.50;;;;;;;17.72;47.02;98214.62;1743425;82;20928;-61
2022/09/07 16:25:03;;;;;;;6.90;3.25;;;;;;;17.51;47.50;98216.53;1743310;82;20938;-61
2022/09/07 16:27:31;;;;;;;8.88;3.35;;;;;;;17.32;47.31;98210.73;1743408;82;20889;-61
2022/09/07 16:29:59;;;;;;;5.50;3.20;;;;;;;17.15;48.19;98212.74;1743419;82;21118;-61
2022/09/07 16:32:26;;;;;;;13.00;3.70;;;;;;;16.96;49.07;98217.22;1743235;82;20908;-61
2022/09/07 16:34:52;;;;;;;13.58;4.17;;;;;;;16.76;49.45;98222.81;1743429;82;20880;-61
2022/09/07 16:37:19;;;;;;;8.00;4.35;;;;;;;16.60;50.12;98226.38;1743295;82;20988;-61
2022/09/07 16:52:34;;;;;;;17.45;8.63;;;;;;;15.84;53.99;98227.52;1743485;82;20849;-60
2022/09/07 16:55:01;;;;;;;17.67;8.33;;;;;;;15.73;54.49;98220.84;1743514;82;21608;-61
2022/09/07 16:57:28;;;;;;;16.97;8.70;;;;;;;15.64;55.31;98227.58;1743356;81;20968;-61
2022/09/07 16:59:55;;;;;;;22.87;10.50;;;;;;;15.52;56.32;98227.98;1743412;82;20924;-60
2022/09/07 17:02:22;;;;;;;18.60;10.88;;;;;;;15.38;57.05;98232.70;1743402;82;21427;-60
2022/09/07 17:04:49;;;;;;;21.90;13.18;;;;;;;15.23;57.55;98227.73;1743332;82;20904;-60
2022/09/07 17:07:16;;;;;;;31.80;18.75;;;;;;;15.10;57.78;98230.79;1743275;82;22197;-60
2022/09/07 17:09:45;;;;;;;32.45;21.07;;;;;;;15.01;58.06;98232.13;1743310;82;21331;-60
2022/09/07 17:12:13;;;;;;;42.33;24.52;;;;;;;14.91;58.16;98229.70;1743688;82;21404;-60
2022/09/07 17:14:39;;;;;;;45.63;25.65;;;;;;;14.85;58.51;98231.51;1740952;82;20952;-60
2022/09/07 17:17:07;;;;;;;45.45;27.98;;;;;;;14.74;58.51;98231.55;1735475;82;21482;-60
2022/09/07 17:19:33;;;;;;;51.28;26.65;;;;;;;14.69;58.40;98234.38;1735503;82;21288;-59
2022/09/07 17:22:02;;;;;;;45.83;26.48;;;;;;;14.60;58.65;98235.67;1735454;82;20916;-60